Terminal Aerodrome Forecast
Issued by NWS

Home | Current Version | Previous Version | Text Only | Print | Product List | Glossary On
Versions: 1 2 3 4 5 6 7 8 9 10 11 12 13 14 15 16
340
FTUS42 KTBW 081120
TAFPIE
TAF
KPIE 081120Z 0812/0912 36006KT P6SM FEW020 SCT100
      TEMPO 0812/0813 BKN020
     FM081400 36008KT P6SM SCT015 SCT080
     FM081800 34009KT P6SM SCT030 SCT080 BKN150
     FM090200 01010KT P6SM BKN080=

USA.gov is the U.S. government's official web portal to all federal, state and local government web resources and services.